sensor_id;sensor_type;location;lat;lon;timestamp;P1;durP1;ratioP1;P2;durP2;ratioP2
36411;SDS011;22445;52.100;5.176;2022-11-18T00:00:55;6.00;;;2.53;;
36411;SDS011;22445;52.100;5.176;2022-11-18T00:03:20;8.25;;;2.63;;
36411;SDS011;22445;52.100;5.176;2022-11-18T00:05:53;3.88;;;2.83;;
36411;SDS011;22445;52.100;5.176;2022-11-18T00:08:22;6.97;;;2.80;;
36411;SDS011;22445;52.100;5.176;2022-11-18T00:10:48;5.35;;;2.45;;
36411;SDS011;22445;52.100;5.176;2022-11-18T00:13:14;4.75;;;3.13;;
36411;SDS011;22445;52.100;5.176;2022-11-18T00:15:59;7.55;;;3.00;;
36411;SDS011;22445;52.100;5.176;2022-11-18T00:18:32;6.07;;;3.13;;
36411;SDS011;22445;52.100;5.176;2022-11-18T00:21:04;7.05;;;2.97;;
36411;SDS011;22445;52.100;5.176;2022-11-18T00:23:34;7.70;;;3.45;;
36411;SDS011;22445;52.100;5.176;2022-11-18T00:26:04;6.50;;;2.88;;
36411;SDS011;22445;52.100;5.176;2022-11-18T00:28:31;6.07;;;3.00;;
36411;SDS011;22445;52.100;5.176;2022-11-18T00:31:03;3.10;;;2.63;;
36411;SDS011;22445;52.100;5.176;2022-11-18T00:33:31;5.43;;;2.83;;
36411;SDS011;22445;52.100;5.176;2022-11-18T00:35:56;4.68;;;2.92;;
36411;SDS011;22445;52.100;5.176;2022-11-18T00:38:23;7.10;;;3.00;;
36411;SDS011;22445;52.100;5.176;2022-11-18T00:40:48;4.55;;;3.33;;
36411;SDS011;22445;52.100;5.176;2022-11-18T00:43:14;4.65;;;3.05;;
36411;SDS011;22445;52.100;5.176;2022-11-18T00:45:41;6.93;;;3.20;;
36411;SDS011;22445;52.100;5.176;2022-11-18T00:48:07;4.50;;;2.90;;
36411;SDS011;22445;52.100;5.176;2022-11-18T00:50:32;7.75;;;3.05;;
36411;SDS011;22445;52.100;5.176;2022-11-18T00:52:58;5.45;;;3.33;;
36411;SDS011;22445;52.100;5.176;2022-11-18T00:55:23;5.57;;;3.70;;
36411;SDS011;22445;52.100;5.176;2022-11-18T00:57:49;6.10;;;2.78;;
36411;SDS011;22445;52.100;5.176;2022-11-18T01:00:14;5.75;;;2.90;;
36411;SDS011;22445;52.100;5.176;2022-11-18T01:02:40;8.05;;;3.10;;
36411;SDS011;22445;52.100;5.176;2022-11-18T01:05:06;5.80;;;2.97;;
36411;SDS011;22445;52.100;5.176;2022-11-18T01:07:31;5.95;;;3.03;;
36411;SDS011;22445;52.100;5.176;2022-11-18T01:09:57;3.85;;;2.88;;
36411;SDS011;22445;52.100;5.176;2022-11-18T01:12:23;6.55;;;3.40;;
36411;SDS011;22445;52.100;5.176;2022-11-18T01:15:07;12.45;;;3.70;;
36411;SDS011;22445;52.100;5.176;2022-11-18T01:17:33;7.55;;;3.38;;
36411;SDS011;22445;52.100;5.176;2022-11-18T01:19:58;9.30;;;3.58;;
36411;SDS011;22445;52.100;5.176;2022-11-18T01:22:24;7.45;;;3.28;;
36411;SDS011;22445;52.100;5.176;2022-11-18T01:24:49;7.80;;;3.90;;
36411;SDS011;22445;52.100;5.176;2022-11-18T01:27:15;7.22;;;3.60;;
36411;SDS011;22445;52.100;5.176;2022-11-18T01:29:40;5.88;;;3.33;;
36411;SDS011;22445;52.100;5.176;2022-11-18T01:32:06;6.65;;;4.00;;
36411;SDS011;22445;52.100;5.176;2022-11-18T01:34:31;7.57;;;3.55;;
36411;SDS011;22445;52.100;5.176;2022-11-18T01:36:57;7.68;;;4.00;;
36411;SDS011;22445;52.100;5.176;2022-11-18T01:39:23;10.43;;;3.63;;
36411;SDS011;22445;52.100;5.176;2022-11-18T01:41:49;8.40;;;4.10;;
36411;SDS011;22445;52.100;5.176;2022-11-18T01:47:18;9.50;;;3.95;;
36411;SDS011;22445;52.100;5.176;2022-11-18T01:49:43;7.57;;;3.92;;
36411;SDS011;22445;52.100;5.176;2022-11-18T01:52:09;6.90;;;4.00;;
36411;SDS011;22445;52.100;5.176;2022-11-18T01:54:36;8.25;;;3.50;;
36411;SDS011;22445;52.100;5.176;2022-11-18T01:57:06;8.20;;;3.47;;
36411;SDS011;22445;52.100;5.176;2022-11-18T01:59:34;6.75;;;3.72;;
36411;SDS011;22445;52.100;5.176;2022-11-18T02:02:02;8.50;;;4.00;;
36411;SDS011;22445;52.100;5.176;2022-11-18T02:04:30;12.13;;;4.35;;
36411;SDS011;22445;52.100;5.176;2022-11-18T02:06:56;6.30;;;4.25;;
36411;SDS011;22445;52.100;5.176;2022-11-18T02:09:21;6.30;;;4.40;;
36411;SDS011;22445;52.100;5.176;2022-11-18T02:11:47;9.95;;;4.35;;
36411;SDS011;22445;52.100;5.176;2022-11-18T02:14:18;9.80;;;5.28;;
36411;SDS011;22445;52.100;5.176;2022-11-18T02:29:08;8.23;;;4.30;;
36411;SDS011;22445;52.100;5.176;2022-11-18T02:31:46;8.52;;;4.32;;
36411;SDS011;22445;52.100;5.176;2022-11-18T02:34:42;9.18;;;4.50;;
36411;SDS011;22445;52.100;5.176;2022-11-18T02:43:36;7.93;;;4.88;;
36411;SDS011;22445;52.100;5.176;2022-11-18T02:46:08;15.43;;;5.32;;
36411;SDS011;22445;52.100;5.176;2022-11-18T02:48:37;9.18;;;4.88;;
36411;SDS011;22445;52.100;5.176;2022-11-18T02:51:05;8.38;;;4.93;;
36411;SDS011;22445;52.100;5.176;2022-11-18T02:53:32;13.57;;;5.35;;
36411;SDS011;22445;52.100;5.176;2022-11-18T02:55:58;10.45;;;4.90;;
36411;SDS011;22445;52.100;5.176;2022-11-18T02:58:24;9.80;;;5.18;;
36411;SDS011;22445;52.100;5.176;2022-11-18T03:00:53;8.60;;;5.00;;
36411;SDS011;22445;52.100;5.176;2022-11-18T03:03:30;13.85;;;5.65;;
36411;SDS011;22445;52.100;5.176;2022-11-18T03:11:52;9.70;;;5.28;;
36411;SDS011;22445;52.100;5.176;2022-11-18T03:14:42;7.85;;;4.95;;
36411;SDS011;22445;52.100;5.176;2022-11-18T03:20:37;11.40;;;5.78;;
36411;SDS011;22445;52.100;5.176;2022-11-18T03:23:10;8.07;;;5.47;;
36411;SDS011;22445;52.100;5.176;2022-11-18T03:25:43;11.80;;;5.88;;
36411;SDS011;22445;52.100;5.176;2022-11-18T03:28:13;12.25;;;5.80;;
36411;SDS011;22445;52.100;5.176;2022-11-18T03:31:20;9.25;;;5.07;;
36411;SDS011;22445;52.100;5.176;2022-11-18T03:34:17;13.18;;;6.18;;
36411;SDS011;22445;52.100;5.176;2022-11-18T03:36:46;9.43;;;5.57;;
36411;SDS011;22445;52.100;5.176;2022-11-18T03:39:14;13.30;;;5.38;;
36411;SDS011;22445;52.100;5.176;2022-11-18T03:41:48;11.73;;;6.03;;
36411;SDS011;22445;52.100;5.176;2022-11-18T03:44:22;12.63;;;6.50;;
36411;SDS011;22445;52.100;5.176;2022-11-18T03:46:51;8.52;;;5.45;;
36411;SDS011;22445;52.100;5.176;2022-11-18T03:49:25;14.02;;;6.53;;
36411;SDS011;22445;52.100;5.176;2022-11-18T03:51:55;11.50;;;5.90;;
36411;SDS011;22445;52.100;5.176;2022-11-18T03:54:24;14.80;;;6.40;;
36411;SDS011;22445;52.100;5.176;2022-11-18T03:59:44;10.88;;;6.35;;
36411;SDS011;22445;52.100;5.176;2022-11-18T04:02:33;12.50;;;5.95;;
36411;SDS011;22445;52.100;5.176;2022-11-18T04:05:00;13.32;;;6.15;;
36411;SDS011;22445;52.100;5.176;2022-11-18T04:07:32;11.85;;;5.63;;
36411;SDS011;22445;52.100;5.176;2022-11-18T04:15:52;12.45;;;6.18;;
36411;SDS011;22445;52.100;5.176;2022-11-18T04:18:18;17.10;;;6.72;;
36411;SDS011;22445;52.100;5.176;2022-11-18T04:20:44;9.30;;;6.22;;
36411;SDS011;22445;52.100;5.176;2022-11-18T04:23:09;10.40;;;5.32;;
36411;SDS011;22445;52.100;5.176;2022-11-18T04:25:35;10.68;;;6.15;;
36411;SDS011;22445;52.100;5.176;2022-11-18T04:28:01;11.52;;;6.35;;
36411;SDS011;22445;52.100;5.176;2022-11-18T04:30:27;12.95;;;6.70;;
36411;SDS011;22445;52.100;5.176;2022-11-18T04:32:52;10.02;;;6.13;;
36411;SDS011;22445;52.100;5.176;2022-11-18T04:35:18;9.45;;;7.07;;
36411;SDS011;22445;52.100;5.176;2022-11-18T04:37:43;14.45;;;6.43;;
36411;SDS011;22445;52.100;5.176;2022-11-18T04:40:09;9.50;;;6.20;;
36411;SDS011;22445;52.100;5.176;2022-11-18T04:42:35;13.18;;;6.15;;
36411;SDS011;22445;52.100;5.176;2022-11-18T04:45:00;14.15;;;6.40;;
36411;SDS011;22445;52.100;5.176;2022-11-18T04:47:26;15.65;;;7.30;;
36411;SDS011;22445;52.100;5.176;2022-11-18T04:49:51;15.20;;;7.10;;
36411;SDS011;22445;52.100;5.176;2022-11-18T04:52:17;11.63;;;7.32;;
36411;SDS011;22445;52.100;5.176;2022-11-18T04:54:43;15.45;;;8.15;;
36411;SDS011;22445;52.100;5.176;2022-11-18T04:57:09;9.93;;;6.70;;
36411;SDS011;22445;52.100;5.176;2022-11-18T04:59:34;10.90;;;7.00;;
36411;SDS011;22445;52.100;5.176;2022-11-18T05:02:00;13.35;;;6.43;;
36411;SDS011;22445;52.100;5.176;2022-11-18T05:04:27;12.23;;;6.32;;
36411;SDS011;22445;52.100;5.176;2022-11-18T05:06:55;11.00;;;6.57;;
36411;SDS011;22445;52.100;5.176;2022-11-18T05:09:20;13.20;;;6.60;;
36411;SDS011;22445;52.100;5.176;2022-11-18T05:11:46;11.80;;;6.57;;
36411;SDS011;22445;52.100;5.176;2022-11-18T05:14:30;12.27;;;5.65;;
36411;SDS011;22445;52.100;5.176;2022-11-18T05:16:57;15.98;;;6.97;;
36411;SDS011;22445;52.100;5.176;2022-11-18T05:19:23;16.15;;;7.03;;
36411;SDS011;22445;52.100;5.176;2022-11-18T05:21:49;13.48;;;7.00;;
36411;SDS011;22445;52.100;5.176;2022-11-18T05:24:15;13.82;;;7.05;;
36411;SDS011;22445;52.100;5.176;2022-11-18T05:26:40;11.77;;;6.40;;
36411;SDS011;22445;52.100;5.176;2022-11-18T05:29:06;10.88;;;6.20;;
36411;SDS011;22445;52.100;5.176;2022-11-18T05:31:32;11.55;;;6.40;;
36411;SDS011;22445;52.100;5.176;2022-11-18T05:33:57;11.75;;;6.97;;
36411;SDS011;22445;52.100;5.176;2022-11-18T05:36:23;10.40;;;6.47;;
36411;SDS011;22445;52.100;5.176;2022-11-18T05:38:49;13.20;;;6.20;;
36411;SDS011;22445;52.100;5.176;2022-11-18T05:41:15;15.32;;;7.05;;
36411;SDS011;22445;52.100;5.176;2022-11-18T05:43:59;18.65;;;7.03;;
36411;SDS011;22445;52.100;5.176;2022-11-18T05:46:25;13.82;;;6.60;;
36411;SDS011;22445;52.100;5.176;2022-11-18T05:48:51;12.35;;;6.53;;
36411;SDS011;22445;52.100;5.176;2022-11-18T05:51:17;15.07;;;6.32;;
36411;SDS011;22445;52.100;5.176;2022-11-18T05:53:42;15.48;;;7.55;;
36411;SDS011;22445;52.100;5.176;2022-11-18T05:56:16;11.25;;;7.40;;
36411;SDS011;22445;52.100;5.176;2022-11-18T05:58:46;11.75;;;6.55;;
36411;SDS011;22445;52.100;5.176;2022-11-18T06:01:13;14.25;;;7.32;;
36411;SDS011;22445;52.100;5.176;2022-11-18T06:03:42;14.70;;;7.20;;
36411;SDS011;22445;52.100;5.176;2022-11-18T06:06:08;18.23;;;7.15;;
36411;SDS011;22445;52.100;5.176;2022-11-18T06:08:36;16.70;;;7.13;;
36411;SDS011;22445;52.100;5.176;2022-11-18T06:11:05;11.02;;;6.43;;
36411;SDS011;22445;52.100;5.176;2022-11-18T06:13:33;10.18;;;6.38;;
36411;SDS011;22445;52.100;5.176;2022-11-18T06:16:04;13.10;;;7.15;;
36411;SDS011;22445;52.100;5.176;2022-11-18T06:18:30;15.73;;;6.93;;
36411;SDS011;22445;52.100;5.176;2022-11-18T06:20:59;12.13;;;6.72;;
36411;SDS011;22445;52.100;5.176;2022-11-18T06:23:27;12.25;;;7.35;;
36411;SDS011;22445;52.100;5.176;2022-11-18T06:25:53;20.15;;;7.13;;
36411;SDS011;22445;52.100;5.176;2022-11-18T06:28:19;12.15;;;6.78;;
36411;SDS011;22445;52.100;5.176;2022-11-18T06:30:45;15.85;;;6.80;;
36411;SDS011;22445;52.100;5.176;2022-11-18T06:33:11;12.55;;;6.88;;
36411;SDS011;22445;52.100;5.176;2022-11-18T06:35:37;12.05;;;7.07;;
36411;SDS011;22445;52.100;5.176;2022-11-18T06:38:02;12.48;;;6.80;;
36411;SDS011;22445;52.100;5.176;2022-11-18T06:40:28;14.38;;;6.90;;
36411;SDS011;22445;52.100;5.176;2022-11-18T06:42:54;14.65;;;7.32;;
36411;SDS011;22445;52.100;5.176;2022-11-18T06:45:38;15.05;;;7.38;;
36411;SDS011;22445;52.100;5.176;2022-11-18T06:48:24;13.32;;;7.05;;
36411;SDS011;22445;52.100;5.176;2022-11-18T06:50:49;12.45;;;6.45;;
36411;SDS011;22445;52.100;5.176;2022-11-18T06:53:15;14.05;;;7.07;;
36411;SDS011;22445;52.100;5.176;2022-11-18T06:55:40;13.90;;;6.60;;
36411;SDS011;22445;52.100;5.176;2022-11-18T06:58:06;10.90;;;7.05;;
36411;SDS011;22445;52.100;5.176;2022-11-18T07:00:31;14.63;;;7.22;;
36411;SDS011;22445;52.100;5.176;2022-11-18T07:02:56;12.43;;;7.28;;
36411;SDS011;22445;52.100;5.176;2022-11-18T07:05:22;12.15;;;6.65;;
36411;SDS011;22445;52.100;5.176;2022-11-18T07:07:48;13.10;;;6.45;;
36411;SDS011;22445;52.100;5.176;2022-11-18T07:10:13;13.57;;;6.90;;
36411;SDS011;22445;52.100;5.176;2022-11-18T07:12:39;8.80;;;6.32;;
36411;SDS011;22445;52.100;5.176;2022-11-18T07:15:05;12.05;;;6.97;;
36411;SDS011;22445;52.100;5.176;2022-11-18T07:17:31;11.40;;;7.03;;
36411;SDS011;22445;52.100;5.176;2022-11-18T07:19:56;12.65;;;7.30;;
36411;SDS011;22445;52.100;5.176;2022-11-18T07:22:21;12.35;;;7.18;;
36411;SDS011;22445;52.100;5.176;2022-11-18T07:24:47;10.20;;;6.28;;
36411;SDS011;22445;52.100;5.176;2022-11-18T07:27:13;13.82;;;6.80;;
36411;SDS011;22445;52.100;5.176;2022-11-18T07:29:38;16.45;;;7.00;;
36411;SDS011;22445;52.100;5.176;2022-11-18T07:32:03;13.00;;;8.18;;
36411;SDS011;22445;52.100;5.176;2022-11-18T07:34:30;11.40;;;6.88;;
36411;SDS011;22445;52.100;5.176;2022-11-18T07:36:56;11.38;;;7.25;;
36411;SDS011;22445;52.100;5.176;2022-11-18T07:39:21;11.20;;;6.60;;
36411;SDS011;22445;52.100;5.176;2022-11-18T07:41:47;14.25;;;6.80;;
36411;SDS011;22445;52.100;5.176;2022-11-18T07:44:12;17.17;;;8.02;;
36411;SDS011;22445;52.100;5.176;2022-11-18T07:46:38;10.80;;;7.78;;
36411;SDS011;22445;52.100;5.176;2022-11-18T07:49:05;10.05;;;7.18;;
36411;SDS011;22445;52.100;5.176;2022-11-18T07:51:32;10.88;;;7.38;;
36411;SDS011;22445;52.100;5.176;2022-11-18T07:53:59;11.18;;;7.00;;
36411;SDS011;22445;52.100;5.176;2022-11-18T07:56:25;14.05;;;6.40;;
36411;SDS011;22445;52.100;5.176;2022-11-18T07:58:51;14.05;;;5.78;;
36411;SDS011;22445;52.100;5.176;2022-11-18T08:01:19;12.40;;;5.55;;
36411;SDS011;22445;52.100;5.176;2022-11-18T08:03:47;9.43;;;4.82;;
36411;SDS011;22445;52.100;5.176;2022-11-18T08:06:13;7.45;;;4.85;;
36411;SDS011;22445;52.100;5.176;2022-11-18T08:08:40;7.55;;;4.72;;
36411;SDS011;22445;52.100;5.176;2022-11-18T08:11:07;9.52;;;4.78;;
36411;SDS011;22445;52.100;5.176;2022-11-18T08:13:35;8.95;;;4.30;;
36411;SDS011;22445;52.100;5.176;2022-11-18T08:16:02;7.85;;;4.72;;
36411;SDS011;22445;52.100;5.176;2022-11-18T08:18:29;9.43;;;4.60;;
36411;SDS011;22445;52.100;5.176;2022-11-18T08:20:57;9.00;;;4.70;;
36411;SDS011;22445;52.100;5.176;2022-11-18T08:23:25;7.57;;;4.28;;
36411;SDS011;22445;52.100;5.176;2022-11-18T08:25:51;7.82;;;4.07;;
36411;SDS011;22445;52.100;5.176;2022-11-18T08:28:17;5.65;;;3.58;;
36411;SDS011;22445;52.100;5.176;2022-11-18T08:30:42;7.63;;;3.67;;
36411;SDS011;22445;52.100;5.176;2022-11-18T08:33:08;6.32;;;3.72;;
36411;SDS011;22445;52.100;5.176;2022-11-18T08:35:33;6.30;;;3.60;;
36411;SDS011;22445;52.100;5.176;2022-11-18T08:37:59;7.38;;;4.10;;
36411;SDS011;22445;52.100;5.176;2022-11-18T08:40:24;7.13;;;4.03;;
36411;SDS011;22445;52.100;5.176;2022-11-18T08:42:50;7.45;;;4.07;;
36411;SDS011;22445;52.100;5.176;2022-11-18T08:45:16;7.88;;;4.20;;
36411;SDS011;22445;52.100;5.176;2022-11-18T08:47:41;5.63;;;4.30;;
36411;SDS011;22445;52.100;5.176;2022-11-18T08:50:08;5.20;;;3.80;;
36411;SDS011;22445;52.100;5.176;2022-11-18T08:52:35;6.65;;;4.00;;
36411;SDS011;22445;52.100;5.176;2022-11-18T08:55:01;7.47;;;3.92;;
36411;SDS011;22445;52.100;5.176;2022-11-18T08:57:27;6.43;;;3.90;;
36411;SDS011;22445;52.100;5.176;2022-11-18T08:59:52;7.95;;;4.45;;
36411;SDS011;22445;52.100;5.176;2022-11-18T09:02:19;6.10;;;4.18;;
36411;SDS011;22445;52.100;5.176;2022-11-18T09:04:46;7.82;;;4.40;;
36411;SDS011;22445;52.100;5.176;2022-11-18T09:07:12;4.97;;;3.60;;
36411;SDS011;22445;52.100;5.176;2022-11-18T09:09:37;8.60;;;3.97;;
36411;SDS011;22445;52.100;5.176;2022-11-18T09:12:03;8.57;;;4.07;;
36411;SDS011;22445;52.100;5.176;2022-11-18T09:14:29;7.53;;;3.92;;
36411;SDS011;22445;52.100;5.176;2022-11-18T09:16:55;6.45;;;3.50;;
36411;SDS011;22445;52.100;5.176;2022-11-18T09:19:21;5.65;;;3.65;;
36411;SDS011;22445;52.100;5.176;2022-11-18T09:21:46;6.32;;;3.80;;
36411;SDS011;22445;52.100;5.176;2022-11-18T09:24:12;5.60;;;3.80;;
36411;SDS011;22445;52.100;5.176;2022-11-18T09:26:37;9.90;;;3.70;;
36411;SDS011;22445;52.100;5.176;2022-11-18T09:29:03;5.53;;;3.40;;
36411;SDS011;22445;52.100;5.176;2022-11-18T09:31:29;6.45;;;4.03;;
36411;SDS011;22445;52.100;5.176;2022-11-18T09:33:54;7.68;;;3.80;;
36411;SDS011;22445;52.100;5.176;2022-11-18T09:36:24;6.97;;;3.08;;
36411;SDS011;22445;52.100;5.176;2022-11-18T09:38:50;8.50;;;3.63;;
36411;SDS011;22445;52.100;5.176;2022-11-18T09:41:32;7.32;;;3.60;;
36411;SDS011;22445;52.100;5.176;2022-11-18T09:44:16;6.90;;;4.00;;
36411;SDS011;22445;52.100;5.176;2022-11-18T09:50:00;7.85;;;3.47;;
36411;SDS011;22445;52.100;5.176;2022-11-18T09:52:29;4.22;;;2.90;;
36411;SDS011;22445;52.100;5.176;2022-11-18T09:54:57;5.60;;;3.00;;
36411;SDS011;22445;52.100;5.176;2022-11-18T09:57:25;7.60;;;3.30;;
36411;SDS011;22445;52.100;5.176;2022-11-18T09:59:55;7.90;;;3.92;;
36411;SDS011;22445;52.100;5.176;2022-11-18T10:02:28;9.25;;;4.30;;
36411;SDS011;22445;52.100;5.176;2022-11-18T10:05:00;6.35;;;3.72;;
36411;SDS011;22445;52.100;5.176;2022-11-18T10:07:40;12.10;;;4.97;;
36411;SDS011;22445;52.100;5.176;2022-11-18T10:10:14;9.48;;;4.25;;
36411;SDS011;22445;52.100;5.176;2022-11-18T10:15:42;11.75;;;4.97;;
36411;SDS011;22445;52.100;5.176;2022-11-18T10:21:32;4.93;;;3.95;;
36411;SDS011;22445;52.100;5.176;2022-11-18T10:26:54;8.98;;;4.28;;
36411;SDS011;22445;52.100;5.176;2022-11-18T10:29:21;7.72;;;4.07;;
36411;SDS011;22445;52.100;5.176;2022-11-18T10:34:47;9.18;;;4.63;;
36411;SDS011;22445;52.100;5.176;2022-11-18T10:37:25;7.82;;;3.95;;
36411;SDS011;22445;52.100;5.176;2022-11-18T10:39:55;5.57;;;3.75;;
36411;SDS011;22445;52.100;5.176;2022-11-18T10:42:28;6.63;;;4.25;;
36411;SDS011;22445;52.100;5.176;2022-11-18T10:48:24;5.57;;;3.33;;
36411;SDS011;22445;52.100;5.176;2022-11-18T10:50:50;7.28;;;3.78;;
36411;SDS011;22445;52.100;5.176;2022-11-18T10:56:05;8.48;;;4.15;;
36411;SDS011;22445;52.100;5.176;2022-11-18T10:58:36;7.03;;;4.03;;
36411;SDS011;22445;52.100;5.176;2022-11-18T11:01:06;8.10;;;4.18;;
36411;SDS011;22445;52.100;5.176;2022-11-18T11:03:39;6.47;;;3.75;;
36411;SDS011;22445;52.100;5.176;2022-11-18T11:06:22;8.18;;;4.00;;
36411;SDS011;22445;52.100;5.176;2022-11-18T11:09:06;8.50;;;4.20;;
36411;SDS011;22445;52.100;5.176;2022-11-18T11:12:01;10.55;;;4.18;;
36411;SDS011;22445;52.100;5.176;2022-11-18T11:14:35;9.10;;;4.53;;
36411;SDS011;22445;52.100;5.176;2022-11-18T11:20:22;11.32;;;5.43;;
36411;SDS011;22445;52.100;5.176;2022-11-18T11:22:48;9.90;;;4.38;;
36411;SDS011;22445;52.100;5.176;2022-11-18T11:25:14;10.60;;;4.70;;
36411;SDS011;22445;52.100;5.176;2022-11-18T11:27:57;7.95;;;5.15;;
36411;SDS011;22445;52.100;5.176;2022-11-18T11:30:27;9.23;;;4.35;;
36411;SDS011;22445;52.100;5.176;2022-11-18T11:36:08;12.75;;;5.70;;
36411;SDS011;22445;52.100;5.176;2022-11-18T11:41:44;7.28;;;4.65;;
36411;SDS011;22445;52.100;5.176;2022-11-18T11:47:08;9.45;;;5.75;;
36411;SDS011;22445;52.100;5.176;2022-11-18T11:50:01;11.60;;;7.00;;
36411;SDS011;22445;52.100;5.176;2022-11-18T11:55:51;11.15;;;5.85;;
36411;SDS011;22445;52.100;5.176;2022-11-18T11:58:47;9.63;;;5.25;;
36411;SDS011;22445;52.100;5.176;2022-11-18T12:01:55;11.05;;;6.43;;
36411;SDS011;22445;52.100;5.176;2022-11-18T12:07:55;8.32;;;5.50;;
36411;SDS011;22445;52.100;5.176;2022-11-18T12:13:36;13.60;;;5.85;;
36411;SDS011;22445;52.100;5.176;2022-11-18T12:16:46;10.70;;;7.50;;
36411;SDS011;22445;52.100;5.176;2022-11-18T12:19:37;10.95;;;7.43;;
36411;SDS011;22445;52.100;5.176;2022-11-18T12:22:04;10.85;;;8.25;;
36411;SDS011;22445;52.100;5.176;2022-11-18T12:30:30;14.02;;;9.75;;
36411;SDS011;22445;52.100;5.176;2022-11-18T12:32:56;12.75;;;9.82;;
36411;SDS011;22445;52.100;5.176;2022-11-18T12:35:23;12.48;;;11.25;;
36411;SDS011;22445;52.100;5.176;2022-11-18T12:40:55;14.95;;;12.40;;
36411;SDS011;22445;52.100;5.176;2022-11-18T13:05:35;11.15;;;8.05;;
36411;SDS011;22445;52.100;5.176;2022-11-18T13:08:10;14.27;;;8.40;;
36411;SDS011;22445;52.100;5.176;2022-11-18T13:14:11;12.05;;;8.68;;
36411;SDS011;22445;52.100;5.176;2022-11-18T13:16:58;11.48;;;8.73;;
36411;SDS011;22445;52.100;5.176;2022-11-18T13:19:42;10.82;;;9.70;;
36411;SDS011;22445;52.100;5.176;2022-11-18T13:22:15;12.00;;;9.57;;
36411;SDS011;22445;52.100;5.176;2022-11-18T13:25:00;13.32;;;8.52;;
36411;SDS011;22445;52.100;5.176;2022-11-18T13:30:16;12.82;;;9.30;;
36411;SDS011;22445;52.100;5.176;2022-11-18T13:32:43;17.10;;;9.80;;
36411;SDS011;22445;52.100;5.176;2022-11-18T13:35:19;15.40;;;9.23;;
36411;SDS011;22445;52.100;5.176;2022-11-18T13:38:15;12.20;;;8.73;;
36411;SDS011;22445;52.100;5.176;2022-11-18T13:40:44;15.18;;;9.00;;
36411;SDS011;22445;52.100;5.176;2022-11-18T13:43:28;13.48;;;8.93;;
36411;SDS011;22445;52.100;5.176;2022-11-18T13:45:58;12.13;;;8.27;;
36411;SDS011;22445;52.100;5.176;2022-11-18T13:48:24;14.05;;;9.27;;
36411;SDS011;22445;52.100;5.176;2022-11-18T13:50:50;12.13;;;8.27;;
36411;SDS011;22445;52.100;5.176;2022-11-18T13:53:29;13.05;;;8.88;;
36411;SDS011;22445;52.100;5.176;2022-11-18T13:58:50;13.48;;;9.88;;
36411;SDS011;22445;52.100;5.176;2022-11-18T14:01:25;13.00;;;8.63;;
36411;SDS011;22445;52.100;5.176;2022-11-18T14:03:53;12.68;;;8.80;;
36411;SDS011;22445;52.100;5.176;2022-11-18T14:06:32;13.00;;;9.68;;
36411;SDS011;22445;52.100;5.176;2022-11-18T14:11:57;14.50;;;9.55;;
36411;SDS011;22445;52.100;5.176;2022-11-18T14:14:32;13.57;;;9.55;;
36411;SDS011;22445;52.100;5.176;2022-11-18T14:17:03;17.75;;;9.60;;
36411;SDS011;22445;52.100;5.176;2022-11-18T14:19:50;10.57;;;9.48;;
36411;SDS011;22445;52.100;5.176;2022-11-18T14:22:23;14.68;;;10.48;;
36411;SDS011;22445;52.100;5.176;2022-11-18T14:24:57;13.68;;;9.63;;
36411;SDS011;22445;52.100;5.176;2022-11-18T14:27:43;15.23;;;9.60;;
36411;SDS011;22445;52.100;5.176;2022-11-18T14:30:31;11.25;;;8.88;;
36411;SDS011;22445;52.100;5.176;2022-11-18T14:38:55;9.25;;;8.02;;
36411;SDS011;22445;52.100;5.176;2022-11-18T14:41:20;11.48;;;8.45;;
36411;SDS011;22445;52.100;5.176;2022-11-18T14:44:05;14.18;;;8.13;;
36411;SDS011;22445;52.100;5.176;2022-11-18T14:46:31;11.20;;;8.70;;
36411;SDS011;22445;52.100;5.176;2022-11-18T14:48:59;12.23;;;8.10;;
36411;SDS011;22445;52.100;5.176;2022-11-18T14:51:26;11.27;;;8.23;;
36411;SDS011;22445;52.100;5.176;2022-11-18T14:53:52;15.90;;;9.13;;
36411;SDS011;22445;52.100;5.176;2022-11-18T14:56:25;9.75;;;8.73;;
36411;SDS011;22445;52.100;5.176;2022-11-18T14:58:51;11.02;;;9.13;;
36411;SDS011;22445;52.100;5.176;2022-11-18T15:01:17;14.85;;;9.55;;
36411;SDS011;22445;52.100;5.176;2022-11-18T15:03:42;12.95;;;10.00;;
36411;SDS011;22445;52.100;5.176;2022-11-18T15:06:18;14.75;;;9.85;;
36411;SDS011;22445;52.100;5.176;2022-11-18T15:08:45;15.70;;;10.00;;
36411;SDS011;22445;52.100;5.176;2022-11-18T15:11:12;15.65;;;9.63;;
36411;SDS011;22445;52.100;5.176;2022-11-18T15:13:39;13.35;;;9.63;;
36411;SDS011;22445;52.100;5.176;2022-11-18T15:16:18;13.25;;;10.05;;
36411;SDS011;22445;52.100;5.176;2022-11-18T15:18:46;16.85;;;9.68;;
36411;SDS011;22445;52.100;5.176;2022-11-18T15:21:13;13.52;;;9.93;;
36411;SDS011;22445;52.100;5.176;2022-11-18T15:23:39;12.38;;;10.07;;
36411;SDS011;22445;52.100;5.176;2022-11-18T15:26:11;15.68;;;9.70;;
36411;SDS011;22445;52.100;5.176;2022-11-18T15:28:49;17.70;;;10.63;;
36411;SDS011;22445;52.100;5.176;2022-11-18T15:31:16;14.52;;;11.93;;
36411;SDS011;22445;52.100;5.176;2022-11-18T15:33:42;15.88;;;10.98;;
36411;SDS011;22445;52.100;5.176;2022-11-18T15:36:09;19.73;;;11.73;;
36411;SDS011;22445;52.100;5.176;2022-11-18T15:38:36;16.40;;;11.73;;
36411;SDS011;22445;52.100;5.176;2022-11-18T15:41:02;16.50;;;11.90;;
36411;SDS011;22445;52.100;5.176;2022-11-18T15:43:28;19.65;;;11.57;;
36411;SDS011;22445;52.100;5.176;2022-11-18T15:45:57;16.70;;;11.35;;
36411;SDS011;22445;52.100;5.176;2022-11-18T15:48:23;14.82;;;10.90;;
36411;SDS011;22445;52.100;5.176;2022-11-18T15:50:49;20.13;;;12.40;;
36411;SDS011;22445;52.100;5.176;2022-11-18T15:53:14;15.27;;;11.15;;
36411;SDS011;22445;52.100;5.176;2022-11-18T15:55:40;18.70;;;11.90;;
36411;SDS011;22445;52.100;5.176;2022-11-18T15:58:05;16.15;;;11.68;;
36411;SDS011;22445;52.100;5.176;2022-11-18T16:00:31;17.73;;;12.57;;
36411;SDS011;22445;52.100;5.176;2022-11-18T16:02:56;20.48;;;12.43;;
36411;SDS011;22445;52.100;5.176;2022-11-18T16:05:22;15.70;;;12.70;;
36411;SDS011;22445;52.100;5.176;2022-11-18T16:07:47;15.35;;;12.18;;
36411;SDS011;22445;52.100;5.176;2022-11-18T16:10:13;19.92;;;13.35;;
36411;SDS011;22445;52.100;5.176;2022-11-18T16:12:57;19.83;;;14.40;;
36411;SDS011;22445;52.100;5.176;2022-11-18T16:15:23;19.45;;;13.65;;
36411;SDS011;22445;52.100;5.176;2022-11-18T16:18:07;23.77;;;14.05;;
36411;SDS011;22445;52.100;5.176;2022-11-18T16:20:33;17.95;;;13.52;;
36411;SDS011;22445;52.100;5.176;2022-11-18T16:22:58;19.25;;;13.80;;
36411;SDS011;22445;52.100;5.176;2022-11-18T16:25:24;18.13;;;12.70;;
36411;SDS011;22445;52.100;5.176;2022-11-18T16:27:51;16.55;;;13.23;;
36411;SDS011;22445;52.100;5.176;2022-11-18T16:30:17;23.27;;;14.38;;
36411;SDS011;22445;52.100;5.176;2022-11-18T16:33:01;17.45;;;12.95;;
36411;SDS011;22445;52.100;5.176;2022-11-18T16:35:27;17.38;;;12.93;;
36411;SDS011;22445;52.100;5.176;2022-11-18T16:37:53;18.30;;;13.60;;
36411;SDS011;22445;52.100;5.176;2022-11-18T16:40:18;18.30;;;13.98;;
36411;SDS011;22445;52.100;5.176;2022-11-18T16:42:47;18.27;;;13.00;;
36411;SDS011;22445;52.100;5.176;2022-11-18T16:45:13;18.27;;;12.55;;
36411;SDS011;22445;52.100;5.176;2022-11-18T16:47:39;16.23;;;13.02;;
36411;SDS011;22445;52.100;5.176;2022-11-18T16:50:05;16.58;;;13.13;;
36411;SDS011;22445;52.100;5.176;2022-11-18T16:52:30;19.98;;;12.63;;
36411;SDS011;22445;52.100;5.176;2022-11-18T16:54:56;19.33;;;13.40;;
36411;SDS011;22445;52.100;5.176;2022-11-18T16:57:21;15.73;;;12.13;;
36411;SDS011;22445;52.100;5.176;2022-11-18T16:59:48;17.35;;;13.50;;
36411;SDS011;22445;52.100;5.176;2022-11-18T17:02:13;20.10;;;12.32;;
36411;SDS011;22445;52.100;5.176;2022-11-18T17:04:39;16.23;;;12.98;;